Time;durP1;ratioP1;P1;durP2;ratioP2;P2;SDS_P1;SDS_P2;PMS_P1;PMS_P2;Temp;Humidity;BMP_temperature;BMP_pressure;BME280_temperature;BME280_humidity;BME280_pressure;Samples;Min_cycle;Max_cycle;Signal;HPM_P1;HPM_P2
2023/04/24 00:05:02;;;;;;;4.97;2.42;;;;;;;22.88;29.59;101374.78;21009854;28;20044;-71
2023/04/24 00:15:04;;;;;;;6.78;2.40;;;;;;;22.67;29.55;101346.91;21016353;28;20049;-72
2023/04/24 00:25:06;;;;;;;2.85;2.53;;;;;;;22.77;29.67;101377.59;21009219;28;20063;-71
2023/04/24 00:35:08;;;;;;;3.95;2.33;;;;;;;22.69;28.80;101377.34;21004499;28;20143;-72
2023/04/24 00:45:09;;;;;;;2.95;2.40;;;;;;;22.50;29.52;101377.94;21001377;28;20078;-71
2023/04/24 00:55:11;;;;;;;4.53;2.50;;;;;;;22.67;29.42;101419.44;21025293;28;20085;-72
2023/04/24 01:05:14;;;;;;;3.85;3.00;;;;;;;22.67;30.10;101441.75;21010652;28;20549;-72
2023/04/24 01:15:16;;;;;;;4.40;3.65;;;;;;;22.57;29.55;101439.00;20989907;28;20032;-72
2023/04/24 01:25:17;;;;;;;5.75;4.03;;;;;;;22.53;29.04;101462.97;20970170;28;20045;-73
2023/04/24 01:35:20;;;;;;;7.03;3.17;;;;;;;22.48;29.07;101482.50;20972551;28;20041;-72
2023/04/24 01:45:21;;;;;;;3.58;2.60;;;;;;;22.51;28.64;101504.25;20994412;28;20102;-71
2023/04/24 01:55:22;;;;;;;2.90;2.60;;;;;;;22.35;28.69;101510.94;20985983;28;20542;-69
2023/04/24 02:05:24;;;;;;;6.72;2.70;;;;;;;22.15;27.95;101497.81;20992705;28;20037;-71
2023/04/24 02:15:25;;;;;;;11.57;3.33;;;;;;;22.20;28.16;101534.88;20982886;28;20040;-72
2023/04/24 02:25:26;;;;;;;4.28;2.50;;;;;;;22.13;27.56;101553.84;20996687;28;20480;-70
2023/04/24 02:35:31;;;;;;;3.05;2.20;;;;;;;22.04;27.21;101572.19;20991525;28;20044;-74
2023/04/24 02:45:34;;;;;;;7.03;2.00;;;;;;;21.87;27.59;101574.34;20978286;28;20090;-74
2023/04/24 02:55:35;;;;;;;27.52;3.90;;;;;;;21.86;28.48;101575.44;20965971;28;20098;-69
2023/04/24 03:05:37;;;;;;;11.23;2.50;;;;;;;21.13;31.00;101436.94;21001743;28;20044;-66
2023/04/24 03:15:41;;;;;;;5.05;2.58;;;;;;;22.23;31.39;101615.19;21002986;28;20557;-67
2023/04/24 03:25:42;;;;;;;7.10;2.47;;;;;;;22.29;31.56;101604.88;20990173;28;20040;-69
2023/04/24 03:35:44;;;;;;;10.15;2.47;;;;;;;22.49;32.06;101627.25;20998445;28;20044;-70
2023/04/24 03:45:46;;;;;;;3.53;1.98;;;;;;;22.64;32.69;101651.56;20993762;28;20479;-69
2023/04/24 03:55:50;;;;;;;2.90;2.28;;;;;;;22.78;32.77;101647.13;20994765;28;20051;-69
2023/04/24 04:05:52;;;;;;;3.38;2.00;;;;;;;22.91;33.01;101665.31;20999084;28;20070;-68
2023/04/24 04:15:54;;;;;;;2.53;2.17;;;;;;;23.01;33.32;101676.50;20998791;28;20045;-70
2023/04/24 04:25:56;;;;;;;2.28;2.03;;;;;;;22.91;33.16;101626.25;20997826;28;20044;-71
2023/04/24 04:35:58;;;;;;;3.20;2.00;;;;;;;23.20;33.18;101659.19;20961297;28;20048;-70
2023/04/24 04:46:00;;;;;;;1.88;1.60;;;;;;;23.28;33.30;101665.06;20995812;28;20090;-70
2023/04/24 04:56:02;;;;;;;1.80;1.60;;;;;;;23.34;33.55;101657.50;20994050;28;20024;-70
2023/04/24 05:06:09;;;;;;;1.58;1.48;;;;;;;23.41;33.48;101662.78;20995660;28;20037;-70
2023/04/24 05:16:10;;;;;;;3.92;1.67;;;;;;;23.42;33.25;101642.16;20993759;28;20110;-70
2023/04/24 05:26:13;;;;;;;1.55;1.30;;;;;;;23.34;33.41;101610.88;20993808;28;20373;-71
2023/04/24 05:36:14;;;;;;;2.67;1.63;;;;;;;23.36;33.24;101604.16;20991860;28;20402;-69
2023/04/24 05:46:16;;;;;;;2.03;1.52;;;;;;;23.58;33.19;101641.81;20992483;28;20078;-70
2023/04/24 05:56:23;;;;;;;1.17;1.08;;;;;;;23.57;33.29;101625.34;20981855;28;20094;-70
2023/04/24 06:06:25;;;;;;;1.42;1.30;;;;;;;23.65;33.42;101636.00;20968775;28;20071;-70
2023/04/24 06:16:26;;;;;;;2.58;1.10;;;;;;;23.67;33.28;101632.91;20968178;28;20037;-70
2023/04/24 06:26:33;;;;;;;1.27;1.10;;;;;;;23.69;33.32;101647.44;20968912;28;20055;-70
2023/04/24 06:36:37;;;;;;;1.70;1.20;;;;;;;23.71;33.63;101636.81;20925459;28;20574;-70
2023/04/24 06:46:39;;;;;;;1.00;0.90;;;;;;;23.71;33.67;101646.03;20904389;28;20447;-70
2023/04/24 06:56:40;;;;;;;1.35;1.10;;;;;;;23.65;33.65;101636.00;20916916;28;20045;-70
2023/04/24 07:06:41;;;;;;;1.52;1.10;;;;;;;23.68;33.49;101643.78;20918803;28;20029;-71
2023/04/24 07:16:46;;;;;;;1.02;0.93;;;;;;;23.60;33.38;101638.78;20915685;28;20053;-70
2023/04/24 07:26:47;;;;;;;0.93;0.90;;;;;;;23.68;33.47;101642.97;20915887;28;20103;-69
2023/04/24 07:36:49;;;;;;;0.90;0.90;;;;;;;23.54;33.44;101612.78;20930983;28;20055;-69
2023/04/24 07:46:50;;;;;;;1.00;0.90;;;;;;;23.70;33.72;101654.69;20995885;28;20044;-69
2023/04/24 07:56:54;;;;;;;1.13;1.00;;;;;;;23.57;33.44;101622.56;20938786;28;20039;-70
2023/04/24 08:06:56;;;;;;;0.95;0.90;;;;;;;23.51;33.52;101602.19;20958698;28;20102;-69
2023/04/24 08:16:59;;;;;;;0.90;0.90;;;;;;;23.67;33.41;101619.75;20982041;28;20040;-69
2023/04/24 08:27:01;;;;;;;0.80;0.75;;;;;;;23.68;33.59;101617.81;20997116;28;20037;-69
2023/04/24 08:37:05;;;;;;;0.80;0.80;;;;;;;23.63;33.59;101612.19;20997096;28;20408;-69
2023/04/24 08:47:08;;;;;;;0.90;0.90;;;;;;;23.52;33.64;101630.94;20997248;28;20086;-69
2023/04/24 08:57:11;;;;;;;0.85;0.82;;;;;;;23.54;33.61;101646.28;20977545;28;20040;-69
2023/04/24 09:07:14;;;;;;;2.25;0.90;;;;;;;23.48;33.70;101635.44;20959107;28;20093;-69
2023/04/24 09:17:15;;;;;;;1.13;0.80;;;;;;;23.63;33.61;101668.09;20993317;28;20058;-69
2023/04/24 09:27:18;;;;;;;1.25;0.80;;;;;;;23.63;33.43;101668.91;20993036;28;20471;-69
2023/04/24 09:37:30;;;;;;;1.02;0.93;;;;;;;23.42;33.53;101626.22;20993162;28;20561;-69
2023/04/24 09:47:37;;;;;;;1.10;0.80;;;;;;;23.61;33.67;101687.94;20992732;28;20055;-69
2023/04/24 09:57:48;;;;;;;0.95;0.85;;;;;;;23.58;34.00;101680.94;20990663;28;20044;-69
2023/04/24 10:07:49;;;;;;;0.68;0.68;;;;;;;23.59;33.97;101687.34;20977312;28;20041;-70
2023/04/24 10:17:54;;;;;;;1.00;0.70;;;;;;;23.58;34.00;101686.53;20993817;28;20071;-69
2023/04/24 10:28:00;;;;;;;3.30;1.10;;;;;;;23.52;35.09;101717.56;21006261;28;20377;-70
2023/04/24 10:38:16;;;;;;;1.52;0.80;;;;;;;23.38;34.84;101691.31;20997091;28;20198;-69
2023/04/24 10:48:18;;;;;;;0.60;0.60;;;;;;;23.42;34.84;101703.59;20999160;28;20093;-69
2023/04/24 10:58:23;;;;;;;3.10;0.68;;;;;;;23.38;34.67;101702.47;20990537;28;20036;-72
2023/04/24 11:08:45;;;;;;;3.03;0.88;;;;;;;23.34;34.79;101747.72;20996811;28;20039;-72
2023/04/24 11:18:53;;;;;;;2.25;1.05;;;;;;;23.34;34.80;101758.88;20974133;28;20040;-71
2023/04/24 11:29:07;;;;;;;4.75;1.20;;;;;;;23.29;34.94;101747.72;20962783;28;20048;-71
2023/04/24 11:39:08;;;;;;;3.63;0.95;;;;;;;23.31;34.81;101770.59;21001445;28;20503;-71
2023/04/24 11:49:09;;;;;;;2.47;1.10;;;;;;;23.28;34.83;101803.84;21000502;28;20037;-71
2023/04/24 11:59:11;;;;;;;3.58;1.20;;;;;;;23.20;34.89;101791.25;21000557;28;20040;-71
2023/04/24 12:09:12;;;;;;;3.03;0.95;;;;;;;23.17;35.02;101816.09;20994701;28;20495;-71
2023/04/24 12:19:24;;;;;;;5.07;0.98;;;;;;;23.18;34.65;101821.38;20996603;28;20557;-71
2023/04/24 12:29:28;;;;;;;3.38;0.95;;;;;;;23.08;34.85;101807.41;20909525;28;20037;-71
2023/04/24 12:39:29;;;;;;;1.83;0.98;;;;;;;23.17;34.58;101804.94;20913200;28;20041;-71
2023/04/24 12:49:31;;;;;;;2.25;1.00;;;;;;;23.16;34.79;101784.53;20914144;28;20087;-71
2023/04/24 12:59:32;;;;;;;2.60;1.00;;;;;;;22.96;34.69;101757.44;20912327;28;20071;-72
2023/04/24 13:09:34;;;;;;;1.20;0.98;;;;;;;23.12;35.00;101786.22;20912368;28;20033;-72
2023/04/24 13:19:37;;;;;;;1.65;0.90;;;;;;;23.11;34.54;101784.53;20911618;28;20029;-70
2023/04/24 13:29:38;;;;;;;1.15;1.00;;;;;;;23.10;34.83;101791.25;20892917;28;20033;-71
2023/04/24 13:39:41;;;;;;;1.40;0.80;;;;;;;22.93;34.83;101751.56;20909882;28;20092;-70
2023/04/24 13:49:44;;;;;;;0.95;0.60;;;;;;;22.93;34.50;101743.19;20910158;28;20025;-70
2023/04/24 13:59:45;;;;;;;1.10;0.70;;;;;;;23.09;34.65;101772.78;20909666;28;20039;-72
2023/04/24 14:09:46;;;;;;;2.08;0.80;;;;;;;23.08;34.91;101754.38;20909001;28;20447;-71
2023/04/24 14:19:48;;;;;;;2.35;0.70;;;;;;;23.10;34.37;101762.50;20908017;28;20045;-71
2023/04/24 14:29:49;;;;;;;0.73;0.68;;;;;;;23.10;34.55;101759.69;20907771;28;20037;-72
2023/04/24 14:39:50;;;;;;;1.98;0.88;;;;;;;23.08;34.71;101755.19;20907169;28;20048;-71
2023/04/24 14:49:52;;;;;;;0.82;0.80;;;;;;;23.09;34.39;101756.03;20908041;28;20526;-71
2023/04/24 14:59:53;;;;;;;0.88;0.80;;;;;;;23.10;34.61;101752.16;20922703;28;20055;-71
2023/04/24 15:09:57;;;;;;;0.85;0.65;;;;;;;23.02;34.63;101741.53;20921160;28;20388;-71
2023/04/24 15:20:00;;;;;;;0.70;0.70;;;;;;;23.09;34.62;101739.28;20920287;28;20041;-71
2023/04/24 15:30:01;;;;;;;0.60;0.52;;;;;;;22.76;34.48;101684.78;20919403;28;20091;-71
2023/04/24 15:40:05;;;;;;;0.90;0.75;;;;;;;22.95;34.42;101699.91;20918512;28;20076;-71
2023/04/24 15:50:09;;;;;;;0.85;0.65;;;;;;;23.04;34.34;101711.38;20918496;28;20033;-71
2023/04/24 16:00:11;;;;;;;1.08;0.50;;;;;;;23.11;34.42;101713.91;20918388;28;20044;-71
2023/04/24 16:10:12;;;;;;;0.50;0.50;;;;;;;23.12;34.38;101716.41;20911193;28;20094;-71
2023/04/24 16:20:14;;;;;;;0.65;0.60;;;;;;;23.00;34.55;101686.00;20916507;28;20083;-71
2023/04/24 16:30:25;;;;;;;0.52;0.52;;;;;;;23.06;34.36;101684.03;20987024;28;20037;-71
2023/04/24 16:40:26;;;;;;;0.40;0.40;;;;;;;23.13;34.15;101680.94;20934697;28;20048;-72
2023/04/24 16:50:27;;;;;;;0.50;0.50;;;;;;;23.14;34.07;101680.69;20912802;28;20049;-70
2023/04/24 17:00:32;;;;;;;0.88;0.70;;;;;;;23.14;34.10;101672.31;20911955;28;20041;-72
2023/04/24 17:10:33;;;;;;;0.50;0.50;;;;;;;23.17;34.12;101662.53;20911890;28;20480;-71
2023/04/24 17:20:34;;;;;;;0.63;0.63;;;;;;;23.07;34.22;101641.03;20909673;28;20045;-71
2023/04/24 17:30:39;;;;;;;0.38;0.38;;;;;;;23.20;33.81;101657.22;20910101;28;20036;-71
2023/04/24 17:40:40;;;;;;;0.55;0.55;;;;;;;23.14;33.60;101627.66;20894383;28;20067;-71
2023/04/24 17:50:41;;;;;;;0.82;0.60;;;;;;;23.17;33.47;101629.84;20909535;28;20041;-71
2023/04/24 18:00:46;;;;;;;0.65;0.50;;;;;;;23.21;33.29;101630.97;20908661;28;20106;-71
2023/04/24 18:10:53;;;;;;;0.70;0.50;;;;;;;23.01;33.50;101603.09;20908736;28;20044;-71
2023/04/24 18:20:55;;;;;;;0.60;0.50;;;;;;;23.22;33.41;101631.81;20908164;28;20098;-71
2023/04/24 18:30:57;;;;;;;0.30;0.30;;;;;;;23.19;33.33;101622.06;20919579;28;20049;-71
2023/04/24 18:40:58;;;;;;;1.50;0.60;;;;;;;23.13;33.19;101600.00;20922850;28;20044;-71
2023/04/24 18:51:03;;;;;;;0.50;0.50;;;;;;;23.22;33.61;101609.47;20922618;28;20116;-71
2023/04/24 19:01:07;;;;;;;0.98;0.77;;;;;;;23.22;33.34;101615.88;20905395;28;20040;-71
2023/04/24 19:11:10;;;;;;;1.20;0.77;;;;;;;23.22;33.24;101606.69;20920347;28;20542;-70
2023/04/24 19:21:11;;;;;;;0.50;0.47;;;;;;;23.13;33.41;101586.88;20920149;28;20037;-71
2023/04/24 19:31:13;;;;;;;0.93;0.60;;;;;;;22.67;33.73;101508.72;20919919;28;20121;-71
2023/04/24 19:41:14;;;;;;;1.48;0.77;;;;;;;23.21;33.09;101597.47;20919284;28;20044;-70
2023/04/24 19:51:16;;;;;;;0.50;0.38;;;;;;;23.19;33.46;101599.72;20902784;28;20443;-70
2023/04/24 20:01:17;;;;;;;0.55;0.50;;;;;;;23.19;33.19;101594.13;20918308;28;20044;-71
2023/04/24 20:11:18;;;;;;;0.82;0.40;;;;;;;23.19;33.58;101590.50;20998142;28;20037;-71
2023/04/24 20:21:22;;;;;;;0.73;0.52;;;;;;;23.18;33.21;101598.03;20998684;28;20118;-71
2023/04/24 20:31:24;;;;;;;1.05;0.60;;;;;;;23.11;33.03;101579.91;20997035;28;20040;-70
2023/04/24 20:41:29;;;;;;;0.70;0.68;;;;;;;23.17;33.21;101607.53;20953996;28;20037;-71
2023/04/24 20:51:31;;;;;;;1.15;0.80;;;;;;;23.17;33.28;101610.31;20946751;28;20036;-71
2023/04/24 21:01:32;;;;;;;0.40;0.40;;;;;;;23.02;33.20;101579.63;20994408;28;20537;-70
2023/04/24 21:11:34;;;;;;;0.60;0.55;;;;;;;23.15;33.36;101604.19;20977539;28;20100;-71
2023/04/24 21:21:35;;;;;;;1.27;0.60;;;;;;;23.17;33.46;101620.66;20994949;28;20426;-71
2023/04/24 21:31:36;;;;;;;0.57;0.57;;;;;;;23.15;33.04;101620.94;20993660;28;20094;-69
2023/04/24 21:41:38;;;;;;;4.30;0.80;;;;;;;23.16;33.75;101622.59;20983251;28;20049;-69
2023/04/24 21:51:39;;;;;;;11.60;1.70;;;;;;;22.91;33.66;101591.88;20964960;28;20045;-69
2023/04/24 22:01:41;;;;;;;7.40;1.50;;;;;;;23.21;34.41;101632.94;20977211;28;20044;-69
2023/04/24 22:11:42;;;;;;;3.40;1.00;;;;;;;23.21;34.17;101625.41;21004567;28;20037;-66
2023/04/24 22:21:46;;;;;;;5.13;1.00;;;;;;;23.22;34.42;101638.22;21003389;28;20040;-68
2023/04/24 22:31:49;;;;;;;3.35;1.00;;;;;;;23.25;34.85;101642.44;20995248;28;20099;-70
2023/04/24 22:41:50;;;;;;;3.97;1.00;;;;;;;23.07;34.99;101621.50;21009988;28;20445;-68
2023/04/24 22:51:52;;;;;;;2.83;0.82;;;;;;;23.25;35.02;101657.22;21009279;28;20052;-68
2023/04/24 23:01:53;;;;;;;3.25;1.02;;;;;;;22.97;34.70;101613.13;21010881;28;20152;-68
2023/04/24 23:11:57;;;;;;;2.45;1.00;;;;;;;23.23;34.99;101656.69;21010374;28;20048;-68
2023/04/24 23:21:59;;;;;;;1.98;1.00;;;;;;;23.22;35.11;101666.16;20990097;28;20078;-68
2023/04/24 23:32:02;;;;;;;12.55;1.45;;;;;;;23.23;34.71;101675.38;20999418;28;20033;-71
2023/04/24 23:42:03;;;;;;;5.55;1.13;;;;;;;23.23;34.99;101701.34;20959324;28;20071;-70
2023/04/24 23:52:05;;;;;;;3.13;1.50;;;;;;;23.25;35.00;101692.69;20985958;28;20079;-68
